Tropical Cyclones
[Index]
Main Index Home Page Stock Weather Photos Extreme Storms Discussion Storm News and Storm Chasing Reports Tropical Cyclones / Hurricanes / Typhoons Weather Data and Links Wild Fires / Bushfires Weather Observation Techniques Weather Picture Catalogue Tornado Pictures and Reports Stock Video Footage and DVDs for sale
Season 1978-1979 Tropical Cyclone STAN Track Map
Season 1978-1979 Summaries: [BoM-AU] [JTWC-AU] [JTWC-SIO] [JTWC-SPAC] [JTWC-SH]
<<- Previous TC | JTWC 1978-1979 Season | Next TC ->>

click for intensity scale information  Lat/long Grid: Show Hide

 Date Labels: Show Hide

Joint Typhoon Warning Centre Cyclone Data

Name: STAN

03 Apr 1979 00:00 UTC to 17 Apr 1979 00:00 UTC

    date/time    lat    long     hPa   cat  kts
1979-04-03 00    7.8   156.0                              
1979-04-03 06    8.2   155.9                              
1979-04-03 12    8.6   155.8                              
1979-04-03 18    9.0   155.7                              
1979-04-04 00    9.4   155.6                              
1979-04-04 06    9.9   155.2                              
1979-04-04 12   10.5   154.5                              
1979-04-04 18   10.9   153.9                              
1979-04-05 00   11.2   153.3                              
1979-04-05 06   11.3   152.6                              
1979-04-05 12   11.4   151.8                              
1979-04-05 18   11.5   151.2                              
1979-04-06 00   11.5   150.5                              
1979-04-06 06   11.5   149.7                              
1979-04-06 12   11.5   148.8                              
1979-04-06 18   11.5   148.2                              
1979-04-07 00   11.5   147.5                              
1979-04-07 06   11.5   146.6                              
1979-04-07 12   11.6   145.6                              
1979-04-07 18   11.6   144.8                              
1979-04-08 00   11.7   144.0                              
1979-04-08 06   11.7   143.3                              
1979-04-08 12   11.7   142.7                              
1979-04-08 18   11.6   142.1                              
1979-04-09 00   11.5   141.5                              
1979-04-09 06   11.5   140.9                              
1979-04-09 12   11.5   140.4                              
1979-04-09 18   11.4   139.8                              
1979-04-10 00   11.3   139.2                              
1979-04-10 06   11.2   138.4                              
1979-04-10 12   11.2   137.5                              
1979-04-10 18   11.1   136.7                              
1979-04-11 00   10.9   136.0                              
1979-04-11 06   10.4   135.5                              
1979-04-11 12    9.9   135.5                              
1979-04-11 18    9.9   136.2                              
1979-04-12 00   10.0   137.0                              
1979-04-12 06   10.1   137.2                              
1979-04-12 12   10.2   137.5                              
1979-04-12 18   10.3   137.8                              
1979-04-13 00   10.4   138.2                              
1979-04-13 06   10.6   138.6                              
1979-04-13 12   10.8   139.0                              
1979-04-13 18   11.0   139.4                              
1979-04-14 00   11.2   140.2                              
1979-04-14 06   11.9   141.7                              
1979-04-14 12   12.7   143.3                              
1979-04-14 18   13.0   144.9                              
1979-04-15 00   13.3   146.5                              
1979-04-15 06   13.9   148.6                              
1979-04-15 12   14.5   150.9                              
1979-04-15 18   14.8   152.7                              
1979-04-16 00   15.0   154.7                              
1979-04-16 06   15.1   157.5                              
1979-04-16 12   15.2   160.3                              
1979-04-16 18   15.3   163.0                              
1979-04-17 00   15.3   165.6                              
Winds are 1-min average.

Tropical cyclone tracks developed by Michael Bath using data from the Joint Typhoon Warning Centre Best Tracks and Google Maps.


[Australian Severe Weather index] [Copyright Notice] [Email Contacts] [Search This Site] [Privacy Policy]
Document: tropical_cyclone_stan.htm Updated: 18 September 2016